Winchester, Kentucky
Current Conditions -  °F | °C
As of 1:15 PM on Thursday 30 Oct 2014 (Local Time) from KIOB Reporting Station
Overcast Overcast  
Wind Chill: 46°   Ceiling: 2900
Heat Index: 46°   Visibility: 10mi
Dew Point: 36°   Wind: 0mph
Humidity: 66%   Direction: NA
Pressure: 30.16"   Gusts: NA
Location:  37.99°N, 84.18°W
Report Text: KIOB 301715Z AUTO 00000KT 10SM OVC029 08/02 A3016 RMK AO2
Loading
Personal Weather Stations






























Interactive Weather Map
Tropical Storm Tracking
New forecast layout! Learn more

10-Day Weather Forecast

Advertisements
Track Severe Weather on mobile